sensor_id;sensor_type;location;lat;lon;timestamp;P1;durP1;ratioP1;P2;durP2;ratioP2
14191;SDS011;7177;48.572;7.838;2024-03-17T00:02:05;16.27;;;12.57;;
14191;SDS011;7177;48.572;7.838;2024-03-17T00:04:31;15.43;;;10.77;;
14191;SDS011;7177;48.572;7.838;2024-03-17T00:06:57;11.93;;;10.27;;
14191;SDS011;7177;48.572;7.838;2024-03-17T00:09:22;11.83;;;9.37;;
14191;SDS011;7177;48.572;7.838;2024-03-17T00:11:49;11.70;;;10.07;;
14191;SDS011;7177;48.572;7.838;2024-03-17T00:14:15;11.27;;;9.63;;
14191;SDS011;7177;48.572;7.838;2024-03-17T00:16:41;10.20;;;8.50;;
14191;SDS011;7177;48.572;7.838;2024-03-17T00:19:07;9.90;;;8.13;;
14191;SDS011;7177;48.572;7.838;2024-03-17T00:21:33;8.27;;;7.17;;
14191;SDS011;7177;48.572;7.838;2024-03-17T00:23:58;11.53;;;7.60;;
14191;SDS011;7177;48.572;7.838;2024-03-17T00:26:24;9.00;;;7.50;;
14191;SDS011;7177;48.572;7.838;2024-03-17T00:28:50;12.23;;;8.43;;
14191;SDS011;7177;48.572;7.838;2024-03-17T00:31:16;9.50;;;7.70;;
14191;SDS011;7177;48.572;7.838;2024-03-17T00:33:42;8.70;;;7.53;;
14191;SDS011;7177;48.572;7.838;2024-03-17T00:36:09;8.37;;;7.17;;
14191;SDS011;7177;48.572;7.838;2024-03-17T00:38:34;11.97;;;8.03;;
14191;SDS011;7177;48.572;7.838;2024-03-17T00:41:02;7.77;;;6.97;;
14191;SDS011;7177;48.572;7.838;2024-03-17T00:43:28;8.63;;;7.30;;
14191;SDS011;7177;48.572;7.838;2024-03-17T00:45:53;9.43;;;7.50;;
14191;SDS011;7177;48.572;7.838;2024-03-17T00:48:19;8.67;;;6.50;;
14191;SDS011;7177;48.572;7.838;2024-03-17T00:50:44;8.77;;;6.80;;
14191;SDS011;7177;48.572;7.838;2024-03-17T00:53:10;9.77;;;8.30;;
14191;SDS011;7177;48.572;7.838;2024-03-17T00:55:37;11.10;;;7.90;;
14191;SDS011;7177;48.572;7.838;2024-03-17T00:58:02;10.17;;;8.33;;
14191;SDS011;7177;48.572;7.838;2024-03-17T01:00:28;8.80;;;7.63;;
14191;SDS011;7177;48.572;7.838;2024-03-17T01:02:54;14.23;;;10.37;;
14191;SDS011;7177;48.572;7.838;2024-03-17T01:05:20;12.30;;;9.97;;
14191;SDS011;7177;48.572;7.838;2024-03-17T01:07:45;14.07;;;10.03;;
14191;SDS011;7177;48.572;7.838;2024-03-17T01:10:13;12.60;;;9.93;;
14191;SDS011;7177;48.572;7.838;2024-03-17T01:12:38;10.63;;;8.57;;
14191;SDS011;7177;48.572;7.838;2024-03-17T01:15:05;13.10;;;10.40;;
14191;SDS011;7177;48.572;7.838;2024-03-17T01:17:31;15.33;;;9.47;;
14191;SDS011;7177;48.572;7.838;2024-03-17T01:19:56;15.07;;;11.00;;
14191;SDS011;7177;48.572;7.838;2024-03-17T01:22:22;13.20;;;10.07;;
14191;SDS011;7177;48.572;7.838;2024-03-17T01:24:48;13.77;;;10.60;;
14191;SDS011;7177;48.572;7.838;2024-03-17T01:27:13;14.37;;;10.33;;
14191;SDS011;7177;48.572;7.838;2024-03-17T01:29:41;11.60;;;9.63;;
14191;SDS011;7177;48.572;7.838;2024-03-17T01:32:08;11.40;;;8.97;;
14191;SDS011;7177;48.572;7.838;2024-03-17T01:34:34;12.37;;;9.33;;
14191;SDS011;7177;48.572;7.838;2024-03-17T01:36:59;16.67;;;12.17;;
14191;SDS011;7177;48.572;7.838;2024-03-17T01:39:25;13.17;;;9.97;;
14191;SDS011;7177;48.572;7.838;2024-03-17T01:41:50;12.17;;;9.70;;
14191;SDS011;7177;48.572;7.838;2024-03-17T01:44:23;10.93;;;9.67;;
14191;SDS011;7177;48.572;7.838;2024-03-17T01:46:51;12.13;;;9.93;;
14191;SDS011;7177;48.572;7.838;2024-03-17T01:49:17;11.57;;;10.33;;
14191;SDS011;7177;48.572;7.838;2024-03-17T01:51:46;15.87;;;12.40;;
14191;SDS011;7177;48.572;7.838;2024-03-17T01:54:13;15.77;;;12.73;;
14191;SDS011;7177;48.572;7.838;2024-03-17T01:56:40;15.80;;;12.30;;
14191;SDS011;7177;48.572;7.838;2024-03-17T01:59:07;15.07;;;10.83;;
14191;SDS011;7177;48.572;7.838;2024-03-17T02:01:34;14.93;;;10.70;;
14191;SDS011;7177;48.572;7.838;2024-03-17T02:04:00;17.30;;;12.33;;
14191;SDS011;7177;48.572;7.838;2024-03-17T02:06:26;12.27;;;10.47;;
14191;SDS011;7177;48.572;7.838;2024-03-17T02:08:53;16.70;;;12.90;;
14191;SDS011;7177;48.572;7.838;2024-03-17T02:11:26;17.83;;;12.23;;
14191;SDS011;7177;48.572;7.838;2024-03-17T02:13:53;13.67;;;10.07;;
14191;SDS011;7177;48.572;7.838;2024-03-17T02:16:19;12.17;;;10.30;;
14191;SDS011;7177;48.572;7.838;2024-03-17T02:18:45;13.03;;;10.57;;
14191;SDS011;7177;48.572;7.838;2024-03-17T02:21:11;12.33;;;10.47;;
14191;SDS011;7177;48.572;7.838;2024-03-17T02:23:37;10.87;;;9.13;;
14191;SDS011;7177;48.572;7.838;2024-03-17T02:26:03;12.20;;;9.67;;
14191;SDS011;7177;48.572;7.838;2024-03-17T02:28:29;10.30;;;9.20;;
14191;SDS011;7177;48.572;7.838;2024-03-17T02:30:54;14.53;;;9.40;;
14191;SDS011;7177;48.572;7.838;2024-03-17T02:33:20;10.57;;;9.00;;
14191;SDS011;7177;48.572;7.838;2024-03-17T02:35:48;10.07;;;8.67;;
14191;SDS011;7177;48.572;7.838;2024-03-17T02:38:16;10.93;;;8.73;;
14191;SDS011;7177;48.572;7.838;2024-03-17T02:41:02;11.97;;;9.53;;
14191;SDS011;7177;48.572;7.838;2024-03-17T02:43:27;13.03;;;10.30;;
14191;SDS011;7177;48.572;7.838;2024-03-17T02:45:53;13.37;;;10.40;;
14191;SDS011;7177;48.572;7.838;2024-03-17T02:48:18;12.47;;;9.97;;
14191;SDS011;7177;48.572;7.838;2024-03-17T02:50:45;12.20;;;10.33;;
14191;SDS011;7177;48.572;7.838;2024-03-17T02:53:10;14.77;;;10.63;;
14191;SDS011;7177;48.572;7.838;2024-03-17T02:55:36;11.57;;;10.07;;
14191;SDS011;7177;48.572;7.838;2024-03-17T02:58:01;11.93;;;9.37;;
14191;SDS011;7177;48.572;7.838;2024-03-17T03:00:27;11.17;;;9.20;;
14191;SDS011;7177;48.572;7.838;2024-03-17T03:02:52;11.80;;;9.50;;
14191;SDS011;7177;48.572;7.838;2024-03-17T03:05:18;10.53;;;9.07;;
14191;SDS011;7177;48.572;7.838;2024-03-17T03:07:43;10.27;;;9.17;;
14191;SDS011;7177;48.572;7.838;2024-03-17T03:10:09;11.97;;;9.63;;
14191;SDS011;7177;48.572;7.838;2024-03-17T03:12:35;11.43;;;9.43;;
14191;SDS011;7177;48.572;7.838;2024-03-17T03:15:01;11.00;;;8.67;;
14191;SDS011;7177;48.572;7.838;2024-03-17T03:17:28;11.00;;;9.33;;
14191;SDS011;7177;48.572;7.838;2024-03-17T03:19:53;9.53;;;8.53;;
14191;SDS011;7177;48.572;7.838;2024-03-17T03:22:20;10.53;;;9.43;;
14191;SDS011;7177;48.572;7.838;2024-03-17T03:24:46;10.63;;;9.20;;
14191;SDS011;7177;48.572;7.838;2024-03-17T03:27:12;12.13;;;9.50;;
14191;SDS011;7177;48.572;7.838;2024-03-17T03:29:38;11.63;;;9.30;;
14191;SDS011;7177;48.572;7.838;2024-03-17T03:32:04;11.60;;;9.07;;
14191;SDS011;7177;48.572;7.838;2024-03-17T03:34:29;11.17;;;8.30;;
14191;SDS011;7177;48.572;7.838;2024-03-17T03:36:55;8.80;;;7.90;;
14191;SDS011;7177;48.572;7.838;2024-03-17T03:39:21;10.40;;;8.47;;
14191;SDS011;7177;48.572;7.838;2024-03-17T03:41:46;11.03;;;8.97;;
14191;SDS011;7177;48.572;7.838;2024-03-17T03:44:12;11.00;;;8.73;;
14191;SDS011;7177;48.572;7.838;2024-03-17T03:46:38;9.73;;;8.40;;
14191;SDS011;7177;48.572;7.838;2024-03-17T03:49:04;10.93;;;9.73;;
14191;SDS011;7177;48.572;7.838;2024-03-17T03:51:29;13.60;;;9.73;;
14191;SDS011;7177;48.572;7.838;2024-03-17T03:53:54;10.57;;;8.73;;
14191;SDS011;7177;48.572;7.838;2024-03-17T03:56:20;11.70;;;9.00;;
14191;SDS011;7177;48.572;7.838;2024-03-17T03:58:46;10.27;;;8.50;;
14191;SDS011;7177;48.572;7.838;2024-03-17T04:01:11;8.60;;;7.70;;
14191;SDS011;7177;48.572;7.838;2024-03-17T04:03:37;9.53;;;8.23;;
14191;SDS011;7177;48.572;7.838;2024-03-17T04:08:30;12.73;;;9.00;;
14191;SDS011;7177;48.572;7.838;2024-03-17T04:10:57;8.70;;;7.70;;
14191;SDS011;7177;48.572;7.838;2024-03-17T04:13:23;10.07;;;8.33;;
14191;SDS011;7177;48.572;7.838;2024-03-17T04:15:48;8.80;;;7.90;;
14191;SDS011;7177;48.572;7.838;2024-03-17T04:18:14;9.60;;;8.60;;
14191;SDS011;7177;48.572;7.838;2024-03-17T04:20:42;11.87;;;9.77;;
14191;SDS011;7177;48.572;7.838;2024-03-17T04:23:08;10.73;;;9.63;;
14191;SDS011;7177;48.572;7.838;2024-03-17T04:25:33;13.97;;;10.07;;
14191;SDS011;7177;48.572;7.838;2024-03-17T04:27:59;12.50;;;10.17;;
14191;SDS011;7177;48.572;7.838;2024-03-17T04:30:24;12.57;;;10.17;;
14191;SDS011;7177;48.572;7.838;2024-03-17T04:32:50;14.03;;;11.40;;
14191;SDS011;7177;48.572;7.838;2024-03-17T04:35:17;12.20;;;10.47;;
14191;SDS011;7177;48.572;7.838;2024-03-17T04:37:42;14.50;;;12.27;;
14191;SDS011;7177;48.572;7.838;2024-03-17T04:40:08;15.13;;;12.43;;
14191;SDS011;7177;48.572;7.838;2024-03-17T04:42:36;14.33;;;12.00;;
14191;SDS011;7177;48.572;7.838;2024-03-17T04:45:04;14.20;;;12.70;;
14191;SDS011;7177;48.572;7.838;2024-03-17T04:47:30;15.00;;;12.77;;
14191;SDS011;7177;48.572;7.838;2024-03-17T04:49:56;13.20;;;11.80;;
14191;SDS011;7177;48.572;7.838;2024-03-17T04:52:21;11.77;;;10.33;;
14191;SDS011;7177;48.572;7.838;2024-03-17T04:54:47;11.33;;;10.13;;
14191;SDS011;7177;48.572;7.838;2024-03-17T04:57:12;12.23;;;9.53;;
14191;SDS011;7177;48.572;7.838;2024-03-17T04:59:38;9.53;;;8.53;;
14191;SDS011;7177;48.572;7.838;2024-03-17T05:02:04;12.23;;;9.43;;
14191;SDS011;7177;48.572;7.838;2024-03-17T05:04:30;10.97;;;9.40;;
14191;SDS011;7177;48.572;7.838;2024-03-17T05:06:55;10.63;;;9.17;;
14191;SDS011;7177;48.572;7.838;2024-03-17T05:09:21;12.37;;;10.17;;
14191;SDS011;7177;48.572;7.838;2024-03-17T05:11:46;12.33;;;10.77;;
14191;SDS011;7177;48.572;7.838;2024-03-17T05:14:12;12.50;;;9.97;;
14191;SDS011;7177;48.572;7.838;2024-03-17T05:16:38;11.60;;;9.57;;
14191;SDS011;7177;48.572;7.838;2024-03-17T05:19:04;11.10;;;9.90;;
14191;SDS011;7177;48.572;7.838;2024-03-17T05:21:30;9.53;;;8.53;;
14191;SDS011;7177;48.572;7.838;2024-03-17T05:24:00;11.20;;;9.60;;
14191;SDS011;7177;48.572;7.838;2024-03-17T05:26:27;10.43;;;9.07;;
14191;SDS011;7177;48.572;7.838;2024-03-17T05:28:53;10.70;;;9.60;;
14191;SDS011;7177;48.572;7.838;2024-03-17T05:31:19;10.37;;;8.33;;
14191;SDS011;7177;48.572;7.838;2024-03-17T05:33:46;11.93;;;10.63;;
14191;SDS011;7177;48.572;7.838;2024-03-17T05:36:12;13.40;;;10.07;;
14191;SDS011;7177;48.572;7.838;2024-03-17T05:38:38;12.13;;;9.50;;
14191;SDS011;7177;48.572;7.838;2024-03-17T05:41:04;10.73;;;9.63;;
14191;SDS011;7177;48.572;7.838;2024-03-17T05:43:32;11.57;;;9.70;;
14191;SDS011;7177;48.572;7.838;2024-03-17T05:46:00;12.07;;;10.63;;
14191;SDS011;7177;48.572;7.838;2024-03-17T05:48:27;12.73;;;11.27;;
14191;SDS011;7177;48.572;7.838;2024-03-17T05:50:53;15.93;;;10.30;;
14191;SDS011;7177;48.572;7.838;2024-03-17T05:53:19;12.63;;;10.33;;
14191;SDS011;7177;48.572;7.838;2024-03-17T05:55:46;11.03;;;9.60;;
14191;SDS011;7177;48.572;7.838;2024-03-17T05:58:12;11.57;;;9.33;;
14191;SDS011;7177;48.572;7.838;2024-03-17T06:00:38;11.97;;;10.67;;
14191;SDS011;7177;48.572;7.838;2024-03-17T06:03:04;10.90;;;9.80;;
14191;SDS011;7177;48.572;7.838;2024-03-17T06:05:33;12.40;;;10.07;;
14191;SDS011;7177;48.572;7.838;2024-03-17T06:08:03;11.47;;;10.27;;
14191;SDS011;7177;48.572;7.838;2024-03-17T06:10:30;11.40;;;9.57;;
14191;SDS011;7177;48.572;7.838;2024-03-17T06:12:57;12.83;;;9.80;;
14191;SDS011;7177;48.572;7.838;2024-03-17T06:15:23;15.27;;;9.40;;
14191;SDS011;7177;48.572;7.838;2024-03-17T06:17:50;11.10;;;10.00;;
14191;SDS011;7177;48.572;7.838;2024-03-17T06:20:19;12.17;;;10.00;;
14191;SDS011;7177;48.572;7.838;2024-03-17T06:22:45;11.40;;;8.53;;
14191;SDS011;7177;48.572;7.838;2024-03-17T06:25:11;9.60;;;8.30;;
14191;SDS011;7177;48.572;7.838;2024-03-17T06:27:37;10.53;;;8.30;;
14191;SDS011;7177;48.572;7.838;2024-03-17T06:30:03;9.10;;;8.03;;
14191;SDS011;7177;48.572;7.838;2024-03-17T06:32:32;12.00;;;8.00;;
14191;SDS011;7177;48.572;7.838;2024-03-17T06:34:58;7.97;;;7.13;;
14191;SDS011;7177;48.572;7.838;2024-03-17T06:37:26;10.77;;;8.83;;
14191;SDS011;7177;48.572;7.838;2024-03-17T06:39:51;9.83;;;7.77;;
14191;SDS011;7177;48.572;7.838;2024-03-17T06:42:17;9.97;;;8.70;;
14191;SDS011;7177;48.572;7.838;2024-03-17T06:44:42;11.17;;;8.87;;
14191;SDS011;7177;48.572;7.838;2024-03-17T06:47:08;10.53;;;8.90;;
14191;SDS011;7177;48.572;7.838;2024-03-17T06:49:33;12.43;;;9.43;;
14191;SDS011;7177;48.572;7.838;2024-03-17T06:51:59;15.87;;;10.47;;
14191;SDS011;7177;48.572;7.838;2024-03-17T06:54:24;11.03;;;8.93;;
14191;SDS011;7177;48.572;7.838;2024-03-17T06:56:50;10.93;;;9.13;;
14191;SDS011;7177;48.572;7.838;2024-03-17T06:59:16;9.90;;;8.70;;
14191;SDS011;7177;48.572;7.838;2024-03-17T07:01:42;9.33;;;7.63;;
14191;SDS011;7177;48.572;7.838;2024-03-17T07:04:09;9.10;;;7.77;;
14191;SDS011;7177;48.572;7.838;2024-03-17T07:06:35;8.57;;;7.70;;
14191;SDS011;7177;48.572;7.838;2024-03-17T07:09:01;10.53;;;8.03;;
14191;SDS011;7177;48.572;7.838;2024-03-17T07:11:27;11.27;;;9.10;;
14191;SDS011;7177;48.572;7.838;2024-03-17T07:13:52;12.17;;;9.17;;
14191;SDS011;7177;48.572;7.838;2024-03-17T07:16:18;12.90;;;8.50;;
14191;SDS011;7177;48.572;7.838;2024-03-17T07:18:44;10.00;;;8.60;;
14191;SDS011;7177;48.572;7.838;2024-03-17T07:21:10;12.57;;;9.43;;
14191;SDS011;7177;48.572;7.838;2024-03-17T07:23:35;12.83;;;9.00;;
14191;SDS011;7177;48.572;7.838;2024-03-17T07:26:02;10.33;;;9.27;;
14191;SDS011;7177;48.572;7.838;2024-03-17T07:28:29;12.73;;;9.70;;
14191;SDS011;7177;48.572;7.838;2024-03-17T07:30:57;10.53;;;8.33;;
14191;SDS011;7177;48.572;7.838;2024-03-17T07:33:25;11.37;;;8.33;;
14191;SDS011;7177;48.572;7.838;2024-03-17T07:35:52;9.47;;;8.40;;
14191;SDS011;7177;48.572;7.838;2024-03-17T07:38:22;11.53;;;8.10;;
14191;SDS011;7177;48.572;7.838;2024-03-17T07:41:04;11.50;;;8.60;;
14191;SDS011;7177;48.572;7.838;2024-03-17T07:43:31;11.20;;;9.00;;
14191;SDS011;7177;48.572;7.838;2024-03-17T07:48:23;11.17;;;8.03;;
14191;SDS011;7177;48.572;7.838;2024-03-17T07:50:59;12.87;;;9.57;;
14191;SDS011;7177;48.572;7.838;2024-03-17T07:53:28;13.43;;;8.67;;
14191;SDS011;7177;48.572;7.838;2024-03-17T07:55:58;12.60;;;8.80;;
14191;SDS011;7177;48.572;7.838;2024-03-17T07:58:25;12.07;;;8.30;;
14191;SDS011;7177;48.572;7.838;2024-03-17T08:00:57;11.13;;;8.23;;
14191;SDS011;7177;48.572;7.838;2024-03-17T08:03:24;10.07;;;7.83;;
14191;SDS011;7177;48.572;7.838;2024-03-17T08:05:57;11.10;;;9.00;;
14191;SDS011;7177;48.572;7.838;2024-03-17T08:08:23;11.43;;;9.27;;
14191;SDS011;7177;48.572;7.838;2024-03-17T08:10:49;13.43;;;9.60;;
14191;SDS011;7177;48.572;7.838;2024-03-17T08:13:16;10.70;;;8.47;;
14191;SDS011;7177;48.572;7.838;2024-03-17T08:15:42;11.50;;;8.40;;
14191;SDS011;7177;48.572;7.838;2024-03-17T08:18:09;12.50;;;9.47;;
14191;SDS011;7177;48.572;7.838;2024-03-17T08:20:41;10.93;;;8.40;;
14191;SDS011;7177;48.572;7.838;2024-03-17T08:23:08;9.67;;;8.23;;
14191;SDS011;7177;48.572;7.838;2024-03-17T08:25:35;10.17;;;8.17;;
14191;SDS011;7177;48.572;7.838;2024-03-17T08:28:01;14.23;;;9.00;;
14191;SDS011;7177;48.572;7.838;2024-03-17T08:30:27;12.93;;;8.90;;
14191;SDS011;7177;48.572;7.838;2024-03-17T08:32:53;10.03;;;8.17;;
14191;SDS011;7177;48.572;7.838;2024-03-17T08:35:19;10.67;;;8.13;;
14191;SDS011;7177;48.572;7.838;2024-03-17T08:37:45;9.13;;;7.87;;
14191;SDS011;7177;48.572;7.838;2024-03-17T08:40:10;11.00;;;8.83;;
14191;SDS011;7177;48.572;7.838;2024-03-17T08:42:37;9.73;;;7.93;;
14191;SDS011;7177;48.572;7.838;2024-03-17T08:45:02;9.83;;;7.30;;
14191;SDS011;7177;48.572;7.838;2024-03-17T08:47:29;11.13;;;7.17;;
14191;SDS011;7177;48.572;7.838;2024-03-17T08:49:54;11.37;;;6.97;;
14191;SDS011;7177;48.572;7.838;2024-03-17T08:52:20;10.30;;;7.10;;
14191;SDS011;7177;48.572;7.838;2024-03-17T08:54:46;8.87;;;6.53;;
14191;SDS011;7177;48.572;7.838;2024-03-17T08:57:13;9.43;;;6.03;;
14191;SDS011;7177;48.572;7.838;2024-03-17T08:59:39;10.37;;;7.10;;
14191;SDS011;7177;48.572;7.838;2024-03-17T09:02:05;8.87;;;7.00;;
14191;SDS011;7177;48.572;7.838;2024-03-17T09:04:31;8.80;;;6.37;;
14191;SDS011;7177;48.572;7.838;2024-03-17T09:06:57;8.20;;;6.60;;
14191;SDS011;7177;48.572;7.838;2024-03-17T09:09:22;8.50;;;6.90;;
14191;SDS011;7177;48.572;7.838;2024-03-17T09:11:48;12.23;;;7.70;;
14191;SDS011;7177;48.572;7.838;2024-03-17T09:14:13;9.13;;;7.40;;
14191;SDS011;7177;48.572;7.838;2024-03-17T09:16:39;10.20;;;7.53;;
14191;SDS011;7177;48.572;7.838;2024-03-17T09:19:05;9.93;;;7.33;;
14191;SDS011;7177;48.572;7.838;2024-03-17T09:21:30;10.07;;;7.57;;
14191;SDS011;7177;48.572;7.838;2024-03-17T09:23:56;8.73;;;6.37;;
14191;SDS011;7177;48.572;7.838;2024-03-17T09:26:21;8.20;;;7.37;;
14191;SDS011;7177;48.572;7.838;2024-03-17T09:28:47;9.07;;;7.07;;
14191;SDS011;7177;48.572;7.838;2024-03-17T09:31:12;10.53;;;7.60;;
14191;SDS011;7177;48.572;7.838;2024-03-17T09:33:38;10.50;;;6.50;;
14191;SDS011;7177;48.572;7.838;2024-03-17T09:36:08;7.07;;;6.20;;
14191;SDS011;7177;48.572;7.838;2024-03-17T09:38:36;7.47;;;6.20;;
14191;SDS011;7177;48.572;7.838;2024-03-17T09:41:02;8.60;;;6.10;;
14191;SDS011;7177;48.572;7.838;2024-03-17T09:43:37;7.83;;;5.93;;
14191;SDS011;7177;48.572;7.838;2024-03-17T09:46:05;8.37;;;6.67;;
14191;SDS011;7177;48.572;7.838;2024-03-17T09:48:32;10.57;;;6.80;;
14191;SDS011;7177;48.572;7.838;2024-03-17T09:51:01;7.83;;;6.70;;
14191;SDS011;7177;48.572;7.838;2024-03-17T09:53:28;10.20;;;6.73;;
14191;SDS011;7177;48.572;7.838;2024-03-17T09:56:08;8.07;;;6.60;;
14191;SDS011;7177;48.572;7.838;2024-03-17T09:58:36;8.73;;;6.97;;
14191;SDS011;7177;48.572;7.838;2024-03-17T10:01:02;9.80;;;6.43;;
14191;SDS011;7177;48.572;7.838;2024-03-17T10:03:41;9.17;;;7.27;;
14191;SDS011;7177;48.572;7.838;2024-03-17T10:06:07;9.27;;;6.70;;
14191;SDS011;7177;48.572;7.838;2024-03-17T10:08:40;11.73;;;7.40;;
14191;SDS011;7177;48.572;7.838;2024-03-17T10:11:10;8.93;;;7.20;;
14191;SDS011;7177;48.572;7.838;2024-03-17T10:13:36;8.00;;;7.10;;
14191;SDS011;7177;48.572;7.838;2024-03-17T10:16:02;11.17;;;7.10;;
14191;SDS011;7177;48.572;7.838;2024-03-17T10:18:29;9.80;;;6.80;;
14191;SDS011;7177;48.572;7.838;2024-03-17T10:20:55;11.27;;;7.17;;
14191;SDS011;7177;48.572;7.838;2024-03-17T10:23:22;9.70;;;7.70;;
14191;SDS011;7177;48.572;7.838;2024-03-17T10:25:48;9.93;;;7.33;;
14191;SDS011;7177;48.572;7.838;2024-03-17T10:28:14;8.27;;;7.03;;
14191;SDS011;7177;48.572;7.838;2024-03-17T10:30:41;9.20;;;6.60;;
14191;SDS011;7177;48.572;7.838;2024-03-17T10:33:22;9.83;;;6.67;;
14191;SDS011;7177;48.572;7.838;2024-03-17T10:35:50;10.33;;;6.50;;
14191;SDS011;7177;48.572;7.838;2024-03-17T10:38:22;8.10;;;6.60;;
14191;SDS011;7177;48.572;7.838;2024-03-17T10:40:48;10.63;;;7.10;;
14191;SDS011;7177;48.572;7.838;2024-03-17T10:43:13;10.83;;;7.13;;
14191;SDS011;7177;48.572;7.838;2024-03-17T10:45:39;8.73;;;7.00;;
14191;SDS011;7177;48.572;7.838;2024-03-17T10:48:07;9.13;;;6.40;;
14191;SDS011;7177;48.572;7.838;2024-03-17T10:50:37;9.30;;;6.40;;
14191;SDS011;7177;48.572;7.838;2024-03-17T10:53:05;10.53;;;7.17;;
14191;SDS011;7177;48.572;7.838;2024-03-17T10:55:39;8.53;;;6.20;;
14191;SDS011;7177;48.572;7.838;2024-03-17T10:58:15;10.37;;;7.63;;
14191;SDS011;7177;48.572;7.838;2024-03-17T11:01:02;11.43;;;7.17;;
14191;SDS011;7177;48.572;7.838;2024-03-17T11:03:31;7.50;;;6.57;;
14191;SDS011;7177;48.572;7.838;2024-03-17T11:05:57;8.57;;;6.40;;
14191;SDS011;7177;48.572;7.838;2024-03-17T11:08:23;9.30;;;7.33;;
14191;SDS011;7177;48.572;7.838;2024-03-17T11:10:50;8.70;;;6.60;;
14191;SDS011;7177;48.572;7.838;2024-03-17T11:13:23;10.00;;;6.33;;
14191;SDS011;7177;48.572;7.838;2024-03-17T11:15:52;14.03;;;7.40;;
14191;SDS011;7177;48.572;7.838;2024-03-17T11:20:59;11.93;;;7.57;;
14191;SDS011;7177;48.572;7.838;2024-03-17T11:23:40;10.10;;;6.77;;
14191;SDS011;7177;48.572;7.838;2024-03-17T11:26:06;10.03;;;7.40;;
14191;SDS011;7177;48.572;7.838;2024-03-17T11:34:00;11.87;;;7.10;;
14191;SDS011;7177;48.572;7.838;2024-03-17T11:39:03;7.97;;;5.73;;
14191;SDS011;7177;48.572;7.838;2024-03-17T11:41:45;13.77;;;6.10;;
14191;SDS011;7177;48.572;7.838;2024-03-17T11:46:57;10.17;;;6.23;;
14191;SDS011;7177;48.572;7.838;2024-03-17T11:51:59;8.80;;;6.33;;
14191;SDS011;7177;48.572;7.838;2024-03-17T11:54:30;7.67;;;6.20;;
14191;SDS011;7177;48.572;7.838;2024-03-17T11:57:00;9.93;;;6.53;;
14191;SDS011;7177;48.572;7.838;2024-03-17T11:59:28;13.53;;;6.40;;
14191;SDS011;7177;48.572;7.838;2024-03-17T12:01:54;9.60;;;6.10;;
14191;SDS011;7177;48.572;7.838;2024-03-17T12:04:20;8.37;;;6.10;;
14191;SDS011;7177;48.572;7.838;2024-03-17T12:06:50;6.50;;;5.23;;
14191;SDS011;7177;48.572;7.838;2024-03-17T12:09:25;7.57;;;5.60;;
14191;SDS011;7177;48.572;7.838;2024-03-17T12:12:02;8.23;;;5.70;;
14191;SDS011;7177;48.572;7.838;2024-03-17T12:14:30;8.80;;;5.97;;
14191;SDS011;7177;48.572;7.838;2024-03-17T12:16:57;12.07;;;5.70;;
14191;SDS011;7177;48.572;7.838;2024-03-17T12:19:24;8.27;;;6.50;;
14191;SDS011;7177;48.572;7.838;2024-03-17T12:22:00;8.93;;;6.43;;
14191;SDS011;7177;48.572;7.838;2024-03-17T12:24:27;8.60;;;6.27;;
14191;SDS011;7177;48.572;7.838;2024-03-17T12:26:55;11.97;;;7.00;;
14191;SDS011;7177;48.572;7.838;2024-03-17T12:31:52;8.07;;;6.40;;
14191;SDS011;7177;48.572;7.838;2024-03-17T12:34:19;8.33;;;5.53;;
14191;SDS011;7177;48.572;7.838;2024-03-17T12:36:45;13.40;;;6.20;;
14191;SDS011;7177;48.572;7.838;2024-03-17T12:39:21;6.57;;;5.53;;
14191;SDS011;7177;48.572;7.838;2024-03-17T12:42:03;8.00;;;6.23;;
14191;SDS011;7177;48.572;7.838;2024-03-17T12:44:34;8.33;;;5.97;;
14191;SDS011;7177;48.572;7.838;2024-03-17T12:47:07;9.47;;;6.40;;
14191;SDS011;7177;48.572;7.838;2024-03-17T12:49:36;6.73;;;5.73;;
14191;SDS011;7177;48.572;7.838;2024-03-17T12:52:19;12.13;;;6.20;;
14191;SDS011;7177;48.572;7.838;2024-03-17T12:54:58;10.53;;;5.53;;
14191;SDS011;7177;48.572;7.838;2024-03-17T12:57:44;10.53;;;6.73;;
14191;SDS011;7177;48.572;7.838;2024-03-17T13:00:29;9.07;;;6.80;;
14191;SDS011;7177;48.572;7.838;2024-03-17T13:02:57;8.63;;;5.80;;
14191;SDS011;7177;48.572;7.838;2024-03-17T13:05:23;10.87;;;7.30;;
14191;SDS011;7177;48.572;7.838;2024-03-17T13:07:49;8.03;;;5.67;;
14191;SDS011;7177;48.572;7.838;2024-03-17T13:10:16;6.57;;;5.30;;
14191;SDS011;7177;48.572;7.838;2024-03-17T13:12:46;7.40;;;5.43;;
14191;SDS011;7177;48.572;7.838;2024-03-17T13:15:16;7.17;;;5.43;;
14191;SDS011;7177;48.572;7.838;2024-03-17T13:17:42;7.97;;;5.27;;
14191;SDS011;7177;48.572;7.838;2024-03-17T13:20:12;8.80;;;6.37;;
14191;SDS011;7177;48.572;7.838;2024-03-17T13:22:42;8.63;;;5.23;;
14191;SDS011;7177;48.572;7.838;2024-03-17T13:25:16;9.77;;;5.50;;
14191;SDS011;7177;48.572;7.838;2024-03-17T13:27:43;6.37;;;4.73;;
14191;SDS011;7177;48.572;7.838;2024-03-17T13:30:10;6.67;;;4.87;;
14191;SDS011;7177;48.572;7.838;2024-03-17T13:32:39;8.03;;;5.10;;
14191;SDS011;7177;48.572;7.838;2024-03-17T13:35:10;9.23;;;4.33;;
14191;SDS011;7177;48.572;7.838;2024-03-17T13:37:42;7.90;;;5.77;;
14191;SDS011;7177;48.572;7.838;2024-03-17T13:40:09;6.20;;;4.50;;
14191;SDS011;7177;48.572;7.838;2024-03-17T13:42:37;6.33;;;4.70;;
14191;SDS011;7177;48.572;7.838;2024-03-17T13:45:04;6.93;;;5.20;;
14191;SDS011;7177;48.572;7.838;2024-03-17T13:47:31;9.90;;;5.10;;
14191;SDS011;7177;48.572;7.838;2024-03-17T13:49:58;6.73;;;4.27;;
14191;SDS011;7177;48.572;7.838;2024-03-17T13:52:23;5.97;;;4.80;;
14191;SDS011;7177;48.572;7.838;2024-03-17T13:54:49;7.47;;;4.90;;
14191;SDS011;7177;48.572;7.838;2024-03-17T13:57:14;7.27;;;5.07;;
14191;SDS011;7177;48.572;7.838;2024-03-17T13:59:41;6.07;;;4.57;;
14191;SDS011;7177;48.572;7.838;2024-03-17T14:02:09;5.80;;;4.47;;
14191;SDS011;7177;48.572;7.838;2024-03-17T14:04:38;8.97;;;4.67;;
14191;SDS011;7177;48.572;7.838;2024-03-17T14:07:03;7.57;;;4.83;;
14191;SDS011;7177;48.572;7.838;2024-03-17T14:09:29;7.30;;;5.33;;
14191;SDS011;7177;48.572;7.838;2024-03-17T14:11:56;7.70;;;4.47;;
14191;SDS011;7177;48.572;7.838;2024-03-17T14:14:22;5.77;;;4.63;;
14191;SDS011;7177;48.572;7.838;2024-03-17T14:16:48;5.70;;;4.30;;
14191;SDS011;7177;48.572;7.838;2024-03-17T14:19:14;5.33;;;4.00;;
14191;SDS011;7177;48.572;7.838;2024-03-17T14:21:39;7.03;;;4.00;;
14191;SDS011;7177;48.572;7.838;2024-03-17T14:24:05;10.00;;;4.13;;
14191;SDS011;7177;48.572;7.838;2024-03-17T14:26:33;6.67;;;4.00;;
14191;SDS011;7177;48.572;7.838;2024-03-17T14:29:00;5.43;;;3.70;;
14191;SDS011;7177;48.572;7.838;2024-03-17T14:31:32;5.70;;;4.10;;
14191;SDS011;7177;48.572;7.838;2024-03-17T14:33:59;8.60;;;3.87;;
14191;SDS011;7177;48.572;7.838;2024-03-17T14:36:25;4.73;;;3.13;;
14191;SDS011;7177;48.572;7.838;2024-03-17T14:38:53;6.50;;;4.07;;
14191;SDS011;7177;48.572;7.838;2024-03-17T14:41:19;4.67;;;3.23;;
14191;SDS011;7177;48.572;7.838;2024-03-17T14:43:44;10.47;;;3.90;;
14191;SDS011;7177;48.572;7.838;2024-03-17T14:46:11;5.90;;;3.10;;
14191;SDS011;7177;48.572;7.838;2024-03-17T14:48:38;6.00;;;3.40;;
14191;SDS011;7177;48.572;7.838;2024-03-17T14:51:08;9.43;;;3.50;;
14191;SDS011;7177;48.572;7.838;2024-03-17T14:53:34;4.27;;;3.33;;
14191;SDS011;7177;48.572;7.838;2024-03-17T14:56:01;6.13;;;3.50;;
14191;SDS011;7177;48.572;7.838;2024-03-17T14:58:27;5.17;;;3.43;;
14191;SDS011;7177;48.572;7.838;2024-03-17T15:00:52;6.60;;;4.13;;
14191;SDS011;7177;48.572;7.838;2024-03-17T15:03:18;7.37;;;3.40;;
14191;SDS011;7177;48.572;7.838;2024-03-17T15:05:44;6.00;;;3.60;;
14191;SDS011;7177;48.572;7.838;2024-03-17T15:08:09;4.97;;;3.53;;
14191;SDS011;7177;48.572;7.838;2024-03-17T15:10:36;8.30;;;4.33;;
14191;SDS011;7177;48.572;7.838;2024-03-17T15:13:01;11.43;;;4.27;;
14191;SDS011;7177;48.572;7.838;2024-03-17T15:15:27;8.67;;;4.40;;